Time;durP1;ratioP1;P1;durP2;ratioP2;P2;SDS_P1;SDS_P2;PMS_P1;PMS_P2;Temp;Humidity;BMP_temperature;BMP_pressure;BME280_temperature;BME280_humidity;BME280_pressure;Samples;Min_cycle;Max_cycle;Signal;HPM_P1;HPM_P2
2023/04/08 00:00:11;;;;;;;;;;;11.00;99.90;;;;;;7367675;19;108376;-94
2023/04/08 00:02:39;;;;;;;;;;;11.00;99.90;;;;;;7366064;19;109059;-94
2023/04/08 00:05:07;;;;;;;;;;;11.00;99.90;;;;;;7366647;19;108247;-94
2023/04/08 00:07:34;;;;;;;;;;;11.00;99.90;;;;;;7366573;19;109454;-94
2023/04/08 00:10:02;;;;;;;;;;;11.00;99.90;;;;;;7361293;19;109337;-95
2023/04/08 00:12:29;;;;;;;;;;;11.00;99.90;;;;;;7363997;19;108480;-94
2023/04/08 00:14:57;;;;;;;;;;;10.90;99.90;;;;;;7369603;19;108065;-95
2023/04/08 00:17:24;;;;;;;;;;;10.90;99.90;;;;;;7370602;19;110458;-95
2023/04/08 00:19:51;;;;;;;;;;;11.00;99.90;;;;;;7366985;19;111509;-94
2023/04/08 00:22:19;;;;;;;;;;;10.90;99.90;;;;;;7366025;19;109580;-94
2023/04/08 00:24:46;;;;;;;;;;;10.90;99.90;;;;;;7364643;19;108120;-94
2023/04/08 00:27:13;;;;;;;;;;;10.90;99.90;;;;;;7367679;19;108301;-94
2023/04/08 00:29:40;;;;;;;;;;;10.80;99.90;;;;;;7367640;19;107955;-93
2023/04/08 00:32:07;;;;;;;;;;;10.80;99.90;;;;;;7365800;19;107978;-94
2023/04/08 00:34:36;;;;;;;;;;;10.80;99.90;;;;;;7365713;19;110311;-93
2023/04/08 00:37:03;;;;;;;;;;;10.80;99.90;;;;;;7365931;19;109804;-94
2023/04/08 00:39:30;;;;;;;;;;;10.80;99.90;;;;;;7366333;19;108323;-94
2023/04/08 00:41:58;;;;;;;;;;;10.80;99.90;;;;;;7363611;19;109304;-94
2023/04/08 00:44:25;;;;;;;;;;;10.80;99.90;;;;;;7362672;19;108066;-95
2023/04/08 00:46:52;;;;;;;;;;;10.80;99.90;;;;;;7363957;19;108018;-95
2023/04/08 00:49:19;;;;;;;;;;;10.90;99.90;;;;;;7364043;19;109141;-94
2023/04/08 00:51:46;;;;;;;;;;;10.80;99.90;;;;;;7362866;19;108433;-94
2023/04/08 00:54:14;;;;;;;;;;;10.80;99.90;;;;;;7364405;19;109609;-92
2023/04/08 00:56:42;;;;;;;;;;;10.90;99.90;;;;;;7368783;19;109565;-95
2023/04/08 00:59:09;;;;;;;;;;;10.90;99.90;;;;;;7367906;19;108395;-95
2023/04/08 01:01:57;;;;;;;;;;;10.80;99.90;;;;;;7371714;19;109814;-94
2023/04/08 01:04:27;;;;;;;;;;;10.80;99.90;;;;;;7367242;19;108189;-95
2023/04/08 01:06:55;;;;;;;;;;;10.80;99.90;;;;;;7366143;19;107892;-95
2023/04/08 01:09:26;;;;;;;;;;;10.80;99.90;;;;;;7365395;19;109083;-94
2023/04/08 01:11:55;;;;;;;;;;;10.80;99.90;;;;;;7364315;19;107921;-94
2023/04/08 01:14:25;;;;;;;;;;;10.80;99.90;;;;;;7362472;19;110382;-94
2023/04/08 01:16:54;;;;;;;;;;;10.80;99.90;;;;;;7364149;19;109387;-94
2023/04/08 01:19:26;;;;;;;;;;;10.80;99.90;;;;;;7374303;19;107739;-94
2023/04/08 01:21:54;;;;;;;;;;;10.80;99.90;;;;;;7384639;19;109994;-94
2023/04/08 01:24:25;;;;;;;;;;;10.70;99.90;;;;;;7379451;19;108027;-95
2023/04/08 01:26:55;;;;;;;;;;;10.70;99.90;;;;;;7384658;19;108147;-95
2023/04/08 01:29:23;;;;;;;;;;;10.70;99.90;;;;;;7380927;19;109147;-94
2023/04/08 01:31:52;;;;;;;;;;;10.70;99.90;;;;;;7380644;19;108160;-94
2023/04/08 01:34:21;;;;;;;;;;;10.70;99.90;;;;;;7378363;19;109967;-94
2023/04/08 01:36:49;;;;;;;;;;;10.70;99.90;;;;;;7376971;19;109270;-95
2023/04/08 01:39:18;;;;;;;;;;;10.70;99.90;;;;;;7379097;19;108375;-93
2023/04/08 01:41:45;;;;;;;;;;;10.70;99.90;;;;;;7372387;19;107337;-95
2023/04/08 01:44:12;;;;;;;;;;;10.70;99.90;;;;;;7369706;19;109059;-94
2023/04/08 01:46:41;;;;;;;;;;;10.70;99.90;;;;;;7360169;19;109438;-94
2023/04/08 01:49:09;;;;;;;;;;;10.70;99.90;;;;;;7365627;19;109807;-94
2023/04/08 01:51:37;;;;;;;;;;;10.70;99.90;;;;;;7365463;19;108043;-94
2023/04/08 01:54:10;;;;;;;;;;;10.70;99.90;;;;;;7365819;19;118223;-93
2023/04/08 01:56:40;;;;;;;;;;;10.70;99.90;;;;;;7361019;19;109179;-94
2023/04/08 01:59:09;;;;;;;;;;;10.60;99.90;;;;;;7360054;19;109044;-94
2023/04/08 02:01:37;;;;;;;;;;;10.60;99.90;;;;;;7363347;19;109079;-94
2023/04/08 02:04:05;;;;;;;;;;;10.60;99.90;;;;;;7370219;19;110103;-93
2023/04/08 02:06:32;;;;;;;;;;;10.60;99.90;;;;;;7362283;19;108413;-94
2023/04/08 02:09:00;;;;;;;;;;;10.60;99.90;;;;;;7362053;19;109704;-94
2023/04/08 02:11:28;;;;;;;;;;;10.60;99.90;;;;;;7362668;19;108062;-93
2023/04/08 02:13:55;;;;;;;;;;;10.60;99.90;;;;;;7361163;19;108287;-94
2023/04/08 02:16:26;;;;;;;;;;;10.60;99.90;;;;;;7358910;19;109147;-94
2023/04/08 02:18:55;;;;;;;;;;;10.50;99.90;;;;;;7357563;19;108109;-95
2023/04/08 02:21:26;;;;;;;;;;;10.50;99.90;;;;;;7356388;19;108431;-94
2023/04/08 02:23:54;;;;;;;;;;;10.50;99.90;;;;;;7353919;19;110136;-94
2023/04/08 02:26:22;;;;;;;;;;;10.50;99.90;;;;;;7355930;19;108553;-94
2023/04/08 02:28:49;;;;;;;;;;;10.60;99.90;;;;;;7359759;19;111551;-94
2023/04/08 02:31:18;;;;;;;;;;;10.60;99.90;;;;;;7356557;19;108528;-94
2023/04/08 02:33:45;;;;;;;;;;;10.50;99.90;;;;;;7356645;19;111122;-95
2023/04/08 02:36:16;;;;;;;;;;;10.50;99.90;;;;;;7358814;19;111815;-94
2023/04/08 02:38:47;;;;;;;;;;;10.60;99.90;;;;;;7354403;19;108589;-94
2023/04/08 02:41:15;;;;;;;;;;;10.50;99.90;;;;;;7353424;19;108120;-94
2023/04/08 02:43:42;;;;;;;;;;;10.50;99.90;;;;;;7352527;19;110685;-94
2023/04/08 02:46:10;;;;;;;;;;;10.50;99.90;;;;;;7354324;19;108115;-94
2023/04/08 02:48:37;;;;;;;;;;;10.50;99.90;;;;;;7357944;19;109155;-95
2023/04/08 02:51:05;;;;;;;;;;;10.50;99.90;;;;;;7360251;19;108446;-95
2023/04/08 02:53:32;;;;;;;;;;;10.50;99.90;;;;;;7358789;19;108921;-95
2023/04/08 02:56:00;;;;;;;;;;;10.50;99.90;;;;;;7359760;19;108398;-95
2023/04/08 02:58:27;;;;;;;;;;;10.40;99.90;;;;;;7359315;19;108358;-94
2023/04/08 03:00:55;;;;;;;;;;;10.40;99.90;;;;;;7362074;19;108067;-95
2023/04/08 03:03:28;;;;;;;;;;;10.40;99.90;;;;;;7360776;19;109066;-94
2023/04/08 03:05:56;;;;;;;;;;;10.40;99.90;;;;;;7358879;19;107985;-95
2023/04/08 03:08:23;;;;;;;;;;;10.40;99.90;;;;;;7358469;19;108229;-94
2023/04/08 03:10:50;;;;;;;;;;;10.40;99.90;;;;;;7361240;19;108405;-94
2023/04/08 03:13:17;;;;;;;;;;;10.40;99.90;;;;;;7363034;19;108350;-95
2023/04/08 03:15:45;;;;;;;;;;;10.40;99.90;;;;;;7360585;19;109347;-94
2023/04/08 03:18:12;;;;;;;;;;;10.40;99.90;;;;;;7355924;19;108323;-94
2023/04/08 03:20:39;;;;;;;;;;;10.40;99.90;;;;;;7364250;19;108097;-94
2023/04/08 03:23:06;;;;;;;;;;;10.40;99.90;;;;;;7363675;19;110657;-95
2023/04/08 03:25:33;;;;;;;;;;;10.40;99.90;;;;;;7360099;19;107984;-95
2023/04/08 03:28:01;;;;;;;;;;;10.40;99.90;;;;;;7362048;19;107890;-93
2023/04/08 03:30:28;;;;;;;;;;;10.40;99.90;;;;;;7359580;19;111574;-94
2023/04/08 03:32:55;;;;;;;;;;;10.40;99.90;;;;;;7370097;19;108338;-95
2023/04/08 03:35:22;;;;;;;;;;;10.40;99.90;;;;;;7360360;19;111968;-94
2023/04/08 03:37:50;;;;;;;;;;;10.40;99.90;;;;;;7362209;19;108059;-94
2023/04/08 03:40:17;;;;;;;;;;;10.40;99.90;;;;;;7363464;19;108183;-95
2023/04/08 03:42:44;;;;;;;;;;;10.40;99.90;;;;;;7365448;19;109023;-94
2023/04/08 03:45:11;;;;;;;;;;;10.40;99.90;;;;;;7359431;19;108513;-95
2023/04/08 03:47:40;;;;;;;;;;;10.40;99.90;;;;;;7363705;19;109105;-95
2023/04/08 03:50:07;;;;;;;;;;;10.40;99.90;;;;;;7367625;19;109386;-95
2023/04/08 03:52:34;;;;;;;;;;;10.40;99.90;;;;;;7364019;19;108490;-95
2023/04/08 03:55:01;;;;;;;;;;;10.40;99.90;;;;;;7371423;19;108261;-94
2023/04/08 03:57:28;;;;;;;;;;;10.40;99.90;;;;;;7365927;19;107910;-94
2023/04/08 03:59:56;;;;;;;;;;;10.40;99.90;;;;;;7362979;19;109622;-94
2023/04/08 04:02:24;;;;;;;;;;;10.40;99.90;;;;;;7364800;19;110313;-94
2023/04/08 04:04:51;;;;;;;;;;;10.40;99.90;;;;;;7365128;19;108116;-94
2023/04/08 04:07:19;;;;;;;;;;;10.40;99.90;;;;;;7360009;19;108622;-95
2023/04/08 04:09:46;;;;;;;;;;;10.40;99.90;;;;;;7358210;19;109077;-94
2023/04/08 04:12:13;;;;;;;;;;;10.40;99.90;;;;;;7356610;19;108633;-94
2023/04/08 04:14:40;;;;;;;;;;;10.40;99.90;;;;;;7360452;19;107849;-94
2023/04/08 04:17:07;;;;;;;;;;;10.40;99.90;;;;;;7365909;19;107992;-94
2023/04/08 04:19:37;;;;;;;;;;;10.40;99.90;;;;;;7360809;19;108240;-95
2023/04/08 04:22:04;;;;;;;;;;;10.40;99.90;;;;;;7358557;19;109700;-94
2023/04/08 04:24:31;;;;;;;;;;;10.40;99.90;;;;;;7359730;19;108307;-92
2023/04/08 04:26:58;;;;;;;;;;;10.40;99.90;;;;;;7359437;19;108093;-94
2023/04/08 04:29:25;;;;;;;;;;;10.40;99.90;;;;;;7358380;19;109163;-94
2023/04/08 04:31:52;;;;;;;;;;;10.30;99.90;;;;;;7359568;19;108303;-94
2023/04/08 04:34:20;;;;;;;;;;;10.40;99.90;;;;;;7358767;19;108465;-94
2023/04/08 04:36:47;;;;;;;;;;;10.30;99.90;;;;;;7361151;19;110251;-94
2023/04/08 04:39:14;;;;;;;;;;;10.30;99.90;;;;;;7364305;19;107980;-95
2023/04/08 04:41:43;;;;;;;;;;;10.30;99.90;;;;;;7356140;19;109944;-94
2023/04/08 04:44:10;;;;;;;;;;;10.30;99.90;;;;;;7361466;19;108308;-94
2023/04/08 04:46:37;;;;;;;;;;;10.30;99.90;;;;;;7356053;19;111535;-93
2023/04/08 04:49:04;;;;;;;;;;;10.30;99.90;;;;;;7354723;19;108784;-92
2023/04/08 04:51:32;;;;;;;;;;;10.30;99.90;;;;;;7354361;19;108576;-94
2023/04/08 04:53:59;;;;;;;;;;;10.20;99.90;;;;;;7350801;19;108076;-93
2023/04/08 04:56:26;;;;;;;;;;;10.20;99.90;;;;;;7354577;19;109710;-93
2023/04/08 04:58:53;;;;;;;;;;;10.10;99.90;;;;;;7353169;19;108821;-93
2023/04/08 05:01:20;;;;;;;;;;;10.10;99.90;;;;;;7355375;19;108516;-93
2023/04/08 05:03:47;;;;;;;;;;;10.00;99.90;;;;;;7351233;19;111355;-93
2023/04/08 05:06:14;;;;;;;;;;;10.00;99.90;;;;;;7353796;19;108674;-93
2023/04/08 05:08:41;;;;;;;;;;;10.00;99.90;;;;;;7350653;19;110621;-93
2023/04/08 05:11:09;;;;;;;;;;;10.00;99.90;;;;;;7353874;19;108448;-93
2023/04/08 05:13:36;;;;;;;;;;;10.00;99.90;;;;;;7353288;19;108490;-94
2023/04/08 05:16:03;;;;;;;;;;;9.90;99.90;;;;;;7352976;19;109091;-92
2023/04/08 05:18:30;;;;;;;;;;;9.90;99.90;;;;;;7350626;19;108593;-92
2023/04/08 05:20:58;;;;;;;;;;;9.90;99.90;;;;;;7355749;19;108501;-92
2023/04/08 05:23:25;;;;;;;;;;;9.90;99.90;;;;;;7353363;19;108334;-92
2023/04/08 05:25:52;;;;;;;;;;;10.00;99.90;;;;;;7348873;19;110640;-92
2023/04/08 05:28:19;;;;;;;;;;;10.00;99.90;;;;;;7349035;19;108224;-93
2023/04/08 05:30:50;;;;;;;;;;;10.00;99.90;;;;;;7347709;19;108327;-93
2023/04/08 05:33:17;;;;;;;;;;;10.00;99.90;;;;;;7350258;19;108218;-92
2023/04/08 05:35:45;;;;;;;;;;;10.10;99.90;;;;;;7351227;19;110132;-93
2023/04/08 05:38:12;;;;;;;;;;;10.10;99.90;;;;;;7350173;19;108770;-93
2023/04/08 05:40:39;;;;;;;;;;;10.10;99.90;;;;;;7346699;19;108303;-92
2023/04/08 05:43:06;;;;;;;;;;;10.10;99.90;;;;;;7353984;19;108787;-92
2023/04/08 05:45:33;;;;;;;;;;;10.10;99.90;;;;;;7344035;19;110085;-91
2023/04/08 05:48:00;;;;;;;;;;;10.20;99.90;;;;;;7346082;19;111953;-91
2023/04/08 05:50:27;;;;;;;;;;;10.20;99.90;;;;;;7347720;19;108419;-94
2023/04/08 05:52:54;;;;;;;;;;;10.20;99.90;;;;;;7347632;19;109362;-92
2023/04/08 05:55:21;;;;;;;;;;;10.30;99.90;;;;;;7350211;19;109899;-92
2023/04/08 05:57:49;;;;;;;;;;;10.30;99.90;;;;;;7344306;19;108270;-93
2023/04/08 06:00:20;;;;;;;;;;;10.30;99.90;;;;;;7351910;19;108747;-92
2023/04/08 06:02:47;;;;;;;;;;;10.30;99.90;;;;;;7350944;19;109786;-93
2023/04/08 06:05:15;;;;;;;;;;;10.30;99.90;;;;;;7355859;19;108496;-92
2023/04/08 06:07:42;;;;;;;;;;;10.30;99.90;;;;;;7345582;19;109006;-91
2023/04/08 06:10:09;;;;;;;;;;;10.30;99.90;;;;;;7345438;19;108555;-93
2023/04/08 06:12:39;;;;;;;;;;;10.30;99.90;;;;;;7344722;19;110421;-89
2023/04/08 06:15:07;;;;;;;;;;;10.30;99.90;;;;;;7347152;19;110285;-92
2023/04/08 06:17:37;;;;;;;;;;;10.30;99.90;;;;;;7347662;19;108385;-93
2023/04/08 06:20:05;;;;;;;;;;;10.40;99.90;;;;;;7348155;19;109417;-92
2023/04/08 06:22:32;;;;;;;;;;;10.40;99.90;;;;;;7341865;19;110165;-93
2023/04/08 06:24:59;;;;;;;;;;;10.40;99.90;;;;;;7339551;19;108513;-92
2023/04/08 06:27:26;;;;;;;;;;;10.40;99.90;;;;;;7346946;19;109651;-93
2023/04/08 06:29:54;;;;;;;;;;;10.40;99.90;;;;;;7341955;19;108517;-92
2023/04/08 06:32:21;;;;;;;;;;;10.50;99.90;;;;;;7343257;19;108569;-93
2023/04/08 06:34:48;;;;;;;;;;;10.50;99.90;;;;;;7346092;19;109699;-92
2023/04/08 06:37:15;;;;;;;;;;;10.50;99.90;;;;;;7374546;19;107449;-93
2023/04/08 06:39:43;;;;;;;;;;;10.50;99.90;;;;;;7372466;19;109344;-90
2023/04/08 06:42:10;;;;;;;;;;;10.50;99.90;;;;;;7373672;19;109029;-93
2023/04/08 06:44:37;;;;;;;;;;;10.60;99.90;;;;;;7373655;19;108741;-92
2023/04/08 06:47:04;;;;;;;;;;;10.60;99.90;;;;;;7373037;19;107547;-92
2023/04/08 06:49:31;;;;;;;;;;;10.60;99.90;;;;;;7376179;19;109050;-91
2023/04/08 06:51:58;;;;;;;;;;;10.70;99.90;;;;;;7371818;19;108180;-91
2023/04/08 06:54:25;;;;;;;;;;;10.70;99.90;;;;;;7374296;19;110737;-92
2023/04/08 06:56:52;;;;;;;;;;;10.80;99.90;;;;;;7381224;19;108327;-92
2023/04/08 06:59:19;;;;;;;;;;;10.80;99.90;;;;;;7356769;19;108544;-92
2023/04/08 07:01:46;;;;;;;;;;;10.80;99.90;;;;;;7354215;19;109199;-92
2023/04/08 07:04:14;;;;;;;;;;;10.90;99.90;;;;;;7352314;19;108454;-92
2023/04/08 07:06:41;;;;;;;;;;;10.90;99.90;;;;;;7352219;19;108425;-92
2023/04/08 07:09:08;;;;;;;;;;;10.90;99.90;;;;;;7356194;19;109567;-92
2023/04/08 07:11:35;;;;;;;;;;;11.00;99.90;;;;;;7368194;19;108443;-92
2023/04/08 07:14:02;;;;;;;;;;;11.00;99.90;;;;;;7350203;19;110185;-93
2023/04/08 07:16:30;;;;;;;;;;;11.00;99.90;;;;;;7349717;19;108447;-93
2023/04/08 07:18:57;;;;;;;;;;;11.00;99.90;;;;;;7351025;19;109161;-92
2023/04/08 07:21:24;;;;;;;;;;;11.10;99.90;;;;;;7364022;19;110301;-91
2023/04/08 07:23:51;;;;;;;;;;;11.10;99.90;;;;;;7356703;19;108451;-93
2023/04/08 07:26:18;;;;;;;;;;;11.10;99.90;;;;;;7348507;19;109335;-92
2023/04/08 07:28:45;;;;;;;;;;;11.10;99.90;;;;;;7349332;19;110934;-92
2023/04/08 07:31:13;;;;;;;;;;;11.10;99.90;;;;;;7357374;19;108417;-92
2023/04/08 07:33:41;;;;;;;;;;;11.20;99.90;;;;;;7346082;19;112810;-91
2023/04/08 07:36:08;;;;;;;;;;;11.20;99.90;;;;;;7350320;19;108326;-92
2023/04/08 07:38:36;;;;;;;;;;;11.20;99.90;;;;;;7345965;19;111405;-92
2023/04/08 07:41:03;;;;;;;;;;;11.30;99.90;;;;;;7349970;19;110250;-92
2023/04/08 07:43:31;;;;;;;;;;;11.30;99.90;;;;;;7345854;19;108058;-92
2023/04/08 07:46:02;;;;;;;;;;;11.30;99.90;;;;;;7349668;19;110869;-92
2023/04/08 07:48:32;;;;;;;;;;;11.30;99.90;;;;;;7347392;19;110139;-93
2023/04/08 07:51:03;;;;;;;;;;;11.30;99.90;;;;;;7348442;19;109612;-93
2023/04/08 07:53:36;;;;;;;;;;;11.30;99.90;;;;;;7352890;19;108835;-92
2023/04/08 07:56:09;;;;;;;;;;;11.40;99.90;;;;;;7349538;19;108611;-93
2023/04/08 07:58:36;;;;;;;;;;;11.50;99.90;;;;;;7348340;19;111570;-91
2023/04/08 08:01:04;;;;;;;;;;;11.50;99.90;;;;;;7348738;19;113645;-93
2023/04/08 08:03:31;;;;;;;;;;;11.50;99.90;;;;;;7349996;19;108422;-92
2023/04/08 08:06:00;;;;;;;;;;;11.50;99.90;;;;;;7348738;19;109362;-93
2023/04/08 08:08:27;;;;;;;;;;;11.50;99.90;;;;;;7351512;19;112875;-92
2023/04/08 08:10:54;;;;;;;;;;;11.50;99.90;;;;;;7351965;19;108636;-92
2023/04/08 08:13:21;;;;;;;;;;;11.50;99.90;;;;;;7352324;19;108332;-92
2023/04/08 08:15:52;;;;;;;;;;;11.60;99.90;;;;;;7356047;19;110248;-92
2023/04/08 08:18:19;;;;;;;;;;;11.60;99.90;;;;;;7352662;19;109141;-92
2023/04/08 08:20:46;;;;;;;;;;;11.70;99.90;;;;;;7346959;19;112709;-91
2023/04/08 08:23:14;;;;;;;;;;;11.70;99.90;;;;;;7347983;19;108469;-92
2023/04/08 08:25:41;;;;;;;;;;;11.70;99.90;;;;;;7346866;19;109244;-91
2023/04/08 08:28:08;;;;;;;;;;;11.70;99.90;;;;;;7348572;19;112763;-92
2023/04/08 08:30:37;;;;;;;;;;;11.80;99.90;;;;;;7347520;19;108374;-93
2023/04/08 08:33:04;;;;;;;;;;;11.80;99.90;;;;;;7352480;19;108538;-93
2023/04/08 08:35:31;;;;;;;;;;;11.90;99.90;;;;;;7348161;19;110550;-92
2023/04/08 08:38:01;;;;;;;;;;;11.90;99.90;;;;;;7353256;19;108395;-92
2023/04/08 08:40:28;;;;;;;;;;;11.90;99.90;;;;;;7349491;19;110604;-93
2023/04/08 08:42:57;;;;;;;;;;;12.00;99.90;;;;;;7351188;19;108163;-92
2023/04/08 08:45:25;;;;;;;;;;;12.10;99.90;;;;;;7350509;19;108499;-92
2023/04/08 08:47:52;;;;;;;;;;;12.20;99.90;;;;;;7345120;19;110337;-92
2023/04/08 08:50:19;;;;;;;;;;;12.30;99.90;;;;;;7345860;19;108766;-91
2023/04/08 08:52:47;;;;;;;;;;;12.40;99.90;;;;;;7348274;19;109453;-91
2023/04/08 08:55:16;;;;;;;;;;;12.40;99.90;;;;;;7348639;19;110410;-91
2023/04/08 08:58:04;;;;;;;;;;;12.50;99.90;;;;;;7345611;19;110123;-91
2023/04/08 09:00:38;;;;;;;;;;;12.50;99.90;;;;;;7349939;19;109512;-90
2023/04/08 09:03:16;;;;;;;;;;;12.60;99.90;;;;;;7348447;19;109462;-91
2023/04/08 09:06:00;;;;;;;;;;;12.60;99.90;;;;;;7348950;19;108813;-91
2023/04/08 09:08:34;;;;;;;;;;;12.80;99.90;;;;;;7346322;19;110356;-90
2023/04/08 09:11:14;;;;;;;;;;;12.80;99.90;;;;;;7347179;19;110409;-91
2023/04/08 09:13:42;;;;;;;;;;;12.90;99.90;;;;;;7345836;19;111673;-90
2023/04/08 09:16:10;;;;;;;;;;;13.00;99.90;;;;;;7346423;19;109269;-90
2023/04/08 09:18:37;;;;;;;;;;;13.00;99.90;;;;;;7346946;19;108253;-91
2023/04/08 09:21:05;;;;;;;;;;;13.10;99.90;;;;;;7347996;19;108831;-92
2023/04/08 09:23:41;;;;;;;;;;;13.10;99.90;;;;;;7353872;19;110594;-88
2023/04/08 09:26:12;;;;;;;;;;;13.10;99.90;;;;;;7340704;19;111720;-89
2023/04/08 09:28:40;;;;;;;;;;;13.10;99.90;;;;;;7335117;19;109056;-88
2023/04/08 09:31:27;;;;;;;;;;;13.20;99.90;;;;;;7339961;19;110165;-88
2023/04/08 09:33:55;;;;;;;;;;;13.30;99.90;;;;;;7337830;19;110978;-86
2023/04/08 09:36:22;;;;;;;;;;;13.30;99.90;;;;;;7340405;19;110689;-87
2023/04/08 09:38:49;;;;;;;;;;;13.30;99.90;;;;;;7341452;19;108437;-86
2023/04/08 09:41:19;;;;;;;;;;;13.40;99.90;;;;;;7336157;19;110728;-86
2023/04/08 09:43:50;;;;;;;;;;;13.40;99.90;;;;;;7338575;19;113702;-86
2023/04/08 09:46:20;;;;;;;;;;;13.40;99.90;;;;;;7335336;19;110405;-87
2023/04/08 09:48:55;;;;;;;;;;;13.50;99.90;;;;;;7337187;19;110495;-86
2023/04/08 09:51:22;;;;;;;;;;;13.50;99.90;;;;;;7333290;19;108381;-86
2023/04/08 09:53:55;;;;;;;;;;;13.50;99.90;;;;;;7337864;19;108815;-87
2023/04/08 09:56:22;;;;;;;;;;;13.40;99.90;;;;;;7341219;19;109914;-88
2023/04/08 09:58:58;;;;;;;;;;;13.40;99.90;;;;;;7339619;19;110994;-88
2023/04/08 10:01:38;;;;;;;;;;;13.30;99.90;;;;;;7341163;19;109446;-89
2023/04/08 10:04:08;;;;;;;;;;;13.40;99.90;;;;;;7335992;19;110131;-92
2023/04/08 10:06:36;;;;;;;;;;;13.40;99.90;;;;;;7344970;19;109271;-92
2023/04/08 10:09:04;;;;;;;;;;;13.40;99.90;;;;;;7338310;19;109399;-92
2023/04/08 10:11:32;;;;;;;;;;;13.60;99.90;;;;;;7337688;19;108999;-91
2023/04/08 10:14:00;;;;;;;;;;;13.60;99.90;;;;;;7337421;19;109134;-91
2023/04/08 10:16:27;;;;;;;;;;;13.70;99.90;;;;;;7333458;19;112813;-88
2023/04/08 10:18:55;;;;;;;;;;;13.80;99.90;;;;;;7331751;19;108476;-88
2023/04/08 10:21:38;;;;;;;;;;;13.80;99.90;;;;;;7331273;19;110034;-71
2023/04/08 10:24:06;;;;;;;;;;;13.90;99.90;;;;;;7335141;19;110357;-72
2023/04/08 10:26:36;;;;;;;;;;;14.00;99.90;;;;;;7331221;19;108607;-71
2023/04/08 10:29:18;;;;;;;;;;;14.00;99.90;;;;;;7342135;19;108767;-72
2023/04/08 10:31:46;;;;;;;;;;;14.00;99.90;;;;;;7340462;19;108759;-74
2023/04/08 10:34:21;;;;;;;;;;;14.10;99.90;;;;;;7342967;19;109435;-70
2023/04/08 10:37:02;;;;;;;;;;;14.20;99.90;;;;;;7339771;19;112692;-71
2023/04/08 10:39:30;;;;;;;;;;;14.40;99.90;;;;;;7341751;19;108702;-73
2023/04/08 10:42:01;;;;;;;;;;;14.50;99.90;;;;;;7338283;19;109051;-71
2023/04/08 10:44:28;;;;;;;;;;;14.50;99.90;;;;;;7339309;19;111427;-71
2023/04/08 10:46:55;;;;;;;;;;;14.40;99.90;;;;;;7339769;19;108416;-71
2023/04/08 10:49:31;;;;;;;;;;;14.40;99.90;;;;;;7338811;19;110176;-71
2023/04/08 10:51:58;;;;;;;;;;;14.40;99.90;;;;;;7346209;19;110878;-71
2023/04/08 10:54:25;;;;;;;;;;;14.50;99.90;;;;;;7338450;19;109369;-71
2023/04/08 10:56:53;;;;;;;;;;;14.60;99.90;;;;;;7342478;19;109094;-70
2023/04/08 10:59:27;;;;;;;;;;;14.50;99.90;;;;;;7340031;19;110025;-70
2023/04/08 11:01:54;;;;;;;;;;;14.50;99.90;;;;;;7336511;19;109448;-70
2023/04/08 11:04:22;;;;;;;;;;;14.60;99.90;;;;;;7341967;19;109375;-70
2023/04/08 11:06:50;;;;;;;;;;;14.70;99.90;;;;;;7339367;19;108856;-70
2023/04/08 11:09:17;;;;;;;;;;;14.80;99.90;;;;;;7337622;19;109201;-69
2023/04/08 11:11:45;;;;;;;;;;;14.80;99.90;;;;;;7340235;19;109060;-70
2023/04/08 11:14:12;;;;;;;;;;;14.80;99.90;;;;;;7347587;19;108397;-70
2023/04/08 11:16:39;;;;;;;;;;;14.90;99.90;;;;;;7340111;19;110259;-71
2023/04/08 11:19:07;;;;;;;;;;;15.00;99.90;;;;;;7341792;19;108285;-70
2023/04/08 11:21:36;;;;;;;;;;;14.90;99.90;;;;;;7338012;19;109546;-70
2023/04/08 11:24:08;;;;;;;;;;;14.80;99.90;;;;;;7340394;19;110687;-70
2023/04/08 11:26:36;;;;;;;;;;;14.80;99.90;;;;;;7340457;19;110151;-70
2023/04/08 11:29:03;;;;;;;;;;;14.90;99.90;;;;;;7341218;19;110744;-69
2023/04/08 11:31:31;;;;;;;;;;;14.90;99.90;;;;;;7335116;19;110556;-70
2023/04/08 11:33:58;;;;;;;;;;;15.00;99.90;;;;;;7338440;19;108837;-70
2023/04/08 11:36:27;;;;;;;;;;;15.00;99.90;;;;;;7338804;19;108952;-70
2023/04/08 11:38:54;;;;;;;;;;;15.10;99.90;;;;;;7336509;19;109830;-70
2023/04/08 11:41:22;;;;;;;;;;;15.20;99.90;;;;;;7338916;19;109049;-70
2023/04/08 11:43:50;;;;;;;;;;;15.30;99.90;;;;;;7337478;19;111212;-70
2023/04/08 11:46:19;;;;;;;;;;;15.30;99.90;;;;;;7338550;19;108900;-72
2023/04/08 11:48:59;;;;;;;;;;;15.40;99.90;;;;;;7342187;19;109280;-70
2023/04/08 11:51:27;;;;;;;;;;;15.40;99.90;;;;;;7334987;19;110369;-73
2023/04/08 11:53:54;;;;;;;;;;;15.40;99.90;;;;;;7336231;19;108871;-75
2023/04/08 11:56:22;;;;;;;;;;;15.30;99.90;;;;;;7345173;19;108771;-74
2023/04/08 11:58:50;;;;;;;;;;;15.30;99.90;;;;;;7340472;19;108988;-74
2023/04/08 12:01:18;;;;;;;;;;;15.30;99.90;;;;;;7341700;19;109675;-74
2023/04/08 12:03:55;;;;;;;;;;;15.40;99.90;;;;;;7340502;19;110078;-73
2023/04/08 12:06:23;;;;;;;;;;;15.60;99.90;;;;;;7340997;19;108921;-74
2023/04/08 12:08:51;;;;;;;;;;;15.80;99.90;;;;;;7339055;19;113008;-74
2023/04/08 12:11:19;;;;;;;;;;;16.10;99.90;;;;;;7339768;19;110162;-75
2023/04/08 12:13:48;;;;;;;;;;;16.40;99.90;;;;;;7340176;19;110359;-75
2023/04/08 12:16:16;;;;;;;;;;;16.70;99.90;;;;;;7338266;19;109339;-74
2023/04/08 12:18:43;;;;;;;;;;;16.60;99.90;;;;;;7344682;19;109178;-74
2023/04/08 12:21:11;;;;;;;;;;;16.50;99.90;;;;;;7339035;19;109319;-74
2023/04/08 12:23:38;;;;;;;;;;;16.30;99.90;;;;;;7338863;19;110342;-74
2023/04/08 12:26:05;;;;;;;;;;;16.20;99.90;;;;;;7336706;19;109446;-74
2023/04/08 12:28:33;;;;;;;;;;;16.20;99.90;;;;;;7337945;19;109578;-74
2023/04/08 12:31:01;;;;;;;;;;;16.20;99.90;;;;;;7338606;19;109778;-75
2023/04/08 12:33:28;;;;;;;;;;;16.30;99.90;;;;;;7337125;19;108931;-74
2023/04/08 12:35:57;;;;;;;;;;;16.30;99.90;;;;;;7339125;19;109509;-74
2023/04/08 12:38:25;;;;;;;;;;;16.40;99.90;;;;;;7338830;19;110254;-75
2023/04/08 12:40:53;;;;;;;;;;;16.50;99.90;;;;;;7342814;19;108533;-75
2023/04/08 12:43:22;;;;;;;;;;;16.70;99.90;;;;;;7337767;19;109667;-75
2023/04/08 12:45:50;;;;;;;;;;;17.20;99.90;;;;;;7341875;19;108843;-75
2023/04/08 12:48:17;;;;;;;;;;;17.60;99.90;;;;;;7339741;19;109360;-75
2023/04/08 12:50:44;;;;;;;;;;;18.00;99.90;;;;;;7334729;19;110151;-75
2023/04/08 12:53:11;;;;;;;;;;;18.20;99.90;;;;;;7340498;19;108678;-75
2023/04/08 12:55:39;;;;;;;;;;;18.20;99.90;;;;;;7338035;19;109514;-75
2023/04/08 12:58:07;;;;;;;;;;;18.10;99.90;;;;;;7336218;19;109286;-76
2023/04/08 13:00:36;;;;;;;;;;;18.10;99.90;;;;;;7335590;19;108664;-76
2023/04/08 13:03:05;;;;;;;;;;;18.20;99.90;;;;;;7342331;19;108941;-76
2023/04/08 13:05:35;;;;;;;;;;;18.20;99.90;;;;;;7336160;19;108886;-76
2023/04/08 13:08:11;;;;;;;;;;;18.50;99.90;;;;;;7334343;19;111047;-75
2023/04/08 13:10:38;;;;;;;;;;;18.70;99.90;;;;;;7335645;19;113214;-75
2023/04/08 13:15:36;;;;;;;;;;;18.50;99.90;;;;;;7351368;19;108386;-90
2023/04/08 13:18:05;;;;;;;;;;;18.40;99.90;;;;;;7349763;19;111116;-90
2023/04/08 13:20:32;;;;;;;;;;;18.40;99.90;;;;;;7347249;19;108472;-92
2023/04/08 13:22:59;;;;;;;;;;;18.30;99.90;;;;;;7350161;19;108742;-95
2023/04/08 13:25:27;;;;;;;;;;;18.40;99.90;;;;;;7358356;19;109000;-90
2023/04/08 13:27:54;;;;;;;;;;;18.60;99.90;;;;;;7355216;19;109593;-93
2023/04/08 13:30:21;;;;;;;;;;;18.50;99.90;;;;;;7367839;19;110725;-94
2023/04/08 13:32:48;;;;;;;;;;;18.40;99.90;;;;;;7361891;19;108446;-94
2023/04/08 13:35:15;;;;;;;;;;;18.30;99.90;;;;;;7365544;19;109349;-95
2023/04/08 13:37:44;;;;;;;;;;;18.30;99.90;;;;;;7359410;19;110747;-91
2023/04/08 13:40:12;;;;;;;;;;;18.40;99.90;;;;;;7342342;19;109289;-91
2023/04/08 13:42:40;;;;;;;;;;;18.50;99.90;;;;;;7340977;19;109437;-89
2023/04/08 13:45:07;;;;;;;;;;;18.60;99.90;;;;;;7336708;19;109728;-87
2023/04/08 13:47:34;;;;;;;;;;;18.80;99.90;;;;;;7345633;19;109149;-87
2023/04/08 13:50:05;;;;;;;;;;;19.10;99.90;;;;;;7338271;19;111310;-89
2023/04/08 13:52:32;;;;;;;;;;;19.00;99.90;;;;;;7335215;19;110067;-91
2023/04/08 13:55:00;;;;;;;;;;;18.60;99.40;;;;;;7344112;19;108935;-92
2023/04/08 13:57:27;;;;;;;;;;;18.20;99.00;;;;;;7351994;19;113227;-94
2023/04/08 13:59:54;;;;;;;;;;;17.90;99.20;;;;;;7352225;19;108943;-91
2023/04/08 14:02:22;;;;;;;;;;;17.70;99.50;;;;;;7352668;19;109603;-95
2023/04/08 14:04:49;;;;;;;;;;;17.60;98.90;;;;;;7353505;19;108612;-91
2023/04/08 14:07:16;;;;;;;;;;;17.80;99.90;;;;;;7376946;19;107351;-89
2023/04/08 14:09:43;;;;;;;;;;;18.20;99.90;;;;;;7374560;19;108256;-88
2023/04/08 14:12:10;;;;;;;;;;;18.50;99.90;;;;;;7372816;19;108316;-90